Time;durP1;ratioP1;P1;durP2;ratioP2;P2;SDS_P1;SDS_P2;PMS_P1;PMS_P2;Temp;Humidity;BMP_temperature;BMP_pressure;BME280_temperature;BME280_humidity;BME280_pressure;Samples;Min_cycle;Max_cycle;Signal;HPM_P1;HPM_P2
2022/11/11 00:00:12;;;;;;;5.68;2.10;;;12.20;78.30;;;;;;5025959;28;20021;-85
2022/11/11 00:02:38;;;;;;;5.22;2.63;;;12.20;78.40;;;;;;5033112;28;20034;-85
2022/11/11 00:05:04;;;;;;;5.13;2.17;;;12.10;78.50;;;;;;5028528;28;20030;-86
2022/11/11 00:07:30;;;;;;;3.92;1.98;;;12.10;78.60;;;;;;5001288;28;20037;-85
2022/11/11 00:09:55;;;;;;;2.83;1.65;;;12.10;78.50;;;;;;5036363;28;20026;-85
2022/11/11 00:12:21;;;;;;;2.70;1.45;;;12.10;78.50;;;;;;5008854;28;20067;-85
2022/11/11 00:14:47;;;;;;;2.90;1.80;;;12.10;78.50;;;;;;5021017;28;20112;-85
2022/11/11 00:25:26;;;;;;;2.97;2.13;;;12.10;78.80;;;;;;5036571;28;20099;-92
2022/11/11 00:27:52;;;;;;;3.78;1.75;;;12.10;78.80;;;;;;5020128;28;20021;-91
2022/11/11 00:30:18;;;;;;;4.93;2.20;;;12.10;78.70;;;;;;5020297;28;20036;-91
2022/11/11 00:32:44;;;;;;;3.80;2.00;;;12.20;78.60;;;;;;5019491;28;20052;-92
2022/11/11 00:37:54;;;;;;;6.10;2.65;;;12.20;78.60;;;;;;5005345;28;20075;-85
2022/11/11 00:40:20;;;;;;;4.38;2.22;;;12.20;78.80;;;;;;5014011;28;20068;-86
2022/11/11 00:42:45;;;;;;;2.17;1.88;;;12.10;78.80;;;;;;5030352;28;20036;-85
2022/11/11 00:45:11;;;;;;;2.35;2.05;;;12.10;78.70;;;;;;5031336;28;20124;-91
2022/11/11 00:53:14;;;;;;;5.00;2.65;;;12.10;78.90;;;;;;5033834;28;20032;-85
2022/11/11 00:55:40;;;;;;;4.88;1.90;;;12.10;79.00;;;;;;5029430;28;20025;-85
2022/11/11 00:58:06;;;;;;;5.95;3.30;;;12.10;79.00;;;;;;5029786;28;20037;-85
2022/11/11 01:00:32;;;;;;;8.57;3.15;;;12.10;79.20;;;;;;5029651;28;20124;-85
2022/11/11 01:02:58;;;;;;;7.15;2.33;;;12.10;79.30;;;;;;5009553;28;20061;-86
2022/11/11 01:05:24;;;;;;;7.65;3.17;;;12.10;79.30;;;;;;5029137;28;20025;-86
2022/11/11 01:07:50;;;;;;;6.72;2.88;;;12.10;79.40;;;;;;5029897;28;20037;-86
2022/11/11 01:10:36;;;;;;;4.95;2.95;;;12.10;79.30;;;;;;5027661;28;20052;-85
2022/11/11 01:13:23;;;;;;;4.18;2.60;;;12.10;79.20;;;;;;5028912;28;20484;-85
2022/11/11 01:16:04;;;;;;;5.22;3.05;;;12.10;79.50;;;;;;5011959;28;20511;-85
2022/11/11 01:18:30;;;;;;;3.50;2.72;;;12.00;79.60;;;;;;5029227;28;20099;-85
2022/11/11 01:21:16;;;;;;;4.03;2.78;;;12.10;79.70;;;;;;5016844;28;20059;-85
2022/11/11 01:23:44;;;;;;;4.78;2.70;;;12.10;79.70;;;;;;5027683;28;20026;-85
2022/11/11 01:26:19;;;;;;;4.70;3.38;;;12.00;79.90;;;;;;5029428;28;20022;-85
2022/11/11 01:28:48;;;;;;;4.85;2.67;;;12.00;80.00;;;;;;5030000;28;20071;-85
2022/11/11 01:31:18;;;;;;;7.50;3.20;;;12.00;80.00;;;;;;5034558;28;20517;-85
2022/11/11 01:33:43;;;;;;;12.73;3.47;;;12.00;80.10;;;;;;5023111;28;20448;-85
2022/11/11 01:36:21;;;;;;;4.55;2.67;;;12.00;79.90;;;;;;5013192;28;20021;-85
2022/11/11 01:38:58;;;;;;;7.25;3.65;;;12.10;79.90;;;;;;5029542;28;20018;-85
2022/11/11 01:41:32;;;;;;;4.68;2.60;;;12.10;79.80;;;;;;5028667;28;20469;-85
2022/11/11 01:44:11;;;;;;;6.03;3.17;;;12.10;79.90;;;;;;5040596;28;20025;-85
2022/11/11 01:46:46;;;;;;;3.70;2.03;;;12.10;79.90;;;;;;5033104;28;20083;-85
2022/11/11 01:49:17;;;;;;;4.30;3.38;;;12.10;79.90;;;;;;5030962;28;20033;-85
2022/11/11 01:51:49;;;;;;;7.63;3.92;;;12.10;80.00;;;;;;5029172;28;20021;-85
2022/11/11 01:54:23;;;;;;;4.05;3.03;;;12.10;80.30;;;;;;5012394;28;20030;-86
2022/11/11 01:56:55;;;;;;;5.82;3.33;;;12.10;80.30;;;;;;5028134;28;20360;-85
2022/11/11 01:59:21;;;;;;;9.40;3.72;;;12.10;80.20;;;;;;5019080;28;20057;-85
2022/11/11 02:01:47;;;;;;;7.15;4.32;;;12.10;80.40;;;;;;5027053;28;20064;-85
2022/11/11 02:07:18;;;;;;;4.43;3.08;;;12.10;80.50;;;;;;4976270;28;20031;-92
2022/11/11 02:09:46;;;;;;;8.05;3.72;;;12.10;80.60;;;;;;4976444;28;20097;-92
2022/11/11 02:14:59;;;;;;;5.13;3.58;;;12.10;80.80;;;;;;5036415;28;20099;-92
2022/11/11 02:17:28;;;;;;;6.55;3.60;;;12.10;80.90;;;;;;5035486;28;20021;-92
2022/11/11 02:19:58;;;;;;;8.18;4.20;;;12.10;80.90;;;;;;5034819;28;20022;-91
2022/11/11 02:22:32;;;;;;;5.70;3.55;;;12.10;80.80;;;;;;5038799;28;20097;-91
2022/11/11 02:25:00;;;;;;;6.72;3.13;;;12.10;80.90;;;;;;5038828;28;20022;-90
2022/11/11 02:27:29;;;;;;;5.38;3.67;;;12.10;80.90;;;;;;5039162;28;20033;-91
2022/11/11 02:29:56;;;;;;;7.50;3.53;;;12.10;81.00;;;;;;5042025;28;20049;-92
2022/11/11 02:32:22;;;;;;;4.78;3.10;;;12.10;81.00;;;;;;5040061;28;20018;-91
2022/11/11 02:34:48;;;;;;;5.60;3.10;;;12.20;80.90;;;;;;5024069;28;20044;-91
2022/11/11 02:37:18;;;;;;;4.50;3.10;;;12.20;80.70;;;;;;5040574;28;20508;-92
2022/11/11 02:39:46;;;;;;;4.93;4.32;;;12.20;80.70;;;;;;5040123;28;20030;-90
2022/11/11 02:42:14;;;;;;;7.15;4.03;;;12.20;81.50;;;;;;5039689;28;20025;-92
2022/11/11 02:44:40;;;;;;;6.80;4.32;;;12.20;81.00;;;;;;5039471;28;20032;-92
2022/11/11 02:47:06;;;;;;;4.30;3.05;;;12.20;81.00;;;;;;5022477;28;20034;-91
2022/11/11 02:49:31;;;;;;;6.85;3.45;;;12.20;81.10;;;;;;5021952;28;20029;-93
2022/11/11 02:51:57;;;;;;;6.65;3.92;;;12.20;81.20;;;;;;5022758;28;20025;-91
2022/11/11 02:54:23;;;;;;;7.38;4.15;;;12.20;81.20;;;;;;5033464;28;20028;-86
2022/11/11 02:57:06;;;;;;;6.43;4.05;;;12.20;81.10;;;;;;5017513;28;20091;-85
2022/11/11 02:59:36;;;;;;;8.20;4.50;;;12.20;81.20;;;;;;5016553;28;20033;-85
2022/11/11 03:02:02;;;;;;;7.18;4.15;;;12.20;81.40;;;;;;5031600;28;20111;-85
2022/11/11 03:04:28;;;;;;;7.93;4.10;;;12.20;81.50;;;;;;5031872;28;20037;-85
2022/11/11 03:06:53;;;;;;;6.95;3.03;;;12.20;81.60;;;;;;5035067;28;20399;-85
2022/11/11 03:09:19;;;;;;;8.15;3.60;;;12.20;81.50;;;;;;5018416;28;20029;-86
2022/11/11 03:11:45;;;;;;;5.32;3.08;;;12.20;81.50;;;;;;5046244;28;20036;-86
2022/11/11 03:14:10;;;;;;;11.68;3.50;;;12.10;81.50;;;;;;5015725;28;20045;-85
2022/11/11 03:19:20;;;;;;;4.50;3.45;;;12.20;81.50;;;;;;5026941;28;20385;-85
2022/11/11 03:21:45;;;;;;;8.85;3.65;;;12.20;81.60;;;;;;5028877;28;20488;-92
2022/11/11 03:24:11;;;;;;;6.38;3.70;;;12.20;81.50;;;;;;5020864;28;20034;-92
2022/11/11 03:26:37;;;;;;;6.45;4.18;;;12.20;81.50;;;;;;5038470;28;20048;-91
2022/11/11 03:29:04;;;;;;;7.45;4.35;;;12.20;81.50;;;;;;5037729;28;20030;-92
2022/11/11 03:31:30;;;;;;;9.27;4.43;;;12.20;81.70;;;;;;5020244;28;20435;-92
2022/11/11 03:34:16;;;;;;;15.57;4.25;;;12.10;81.80;;;;;;5036670;28;20038;-91
2022/11/11 03:39:25;;;;;;;7.28;3.70;;;12.20;81.80;;;;;;5037731;28;20040;-92
2022/11/11 03:41:50;;;;;;;4.60;3.25;;;12.20;81.70;;;;;;5041054;28;20033;-92
2022/11/11 03:44:16;;;;;;;7.68;4.20;;;12.20;81.60;;;;;;5037050;28;20030;-91
2022/11/11 03:46:42;;;;;;;5.30;2.80;;;12.20;81.60;;;;;;5033992;28;20030;-92
2022/11/11 03:49:07;;;;;;;8.35;3.60;;;12.20;81.50;;;;;;5017179;28;20392;-92
2022/11/11 03:51:33;;;;;;;9.57;4.05;;;12.20;81.50;;;;;;5017651;28;20018;-92
2022/11/11 03:53:58;;;;;;;7.38;3.95;;;12.20;81.70;;;;;;5001237;28;20564;-91
2022/11/11 03:56:24;;;;;;;8.43;4.60;;;12.20;81.70;;;;;;5018061;28;20129;-91
2022/11/11 03:58:50;;;;;;;4.35;3.38;;;12.20;81.70;;;;;;5017307;28;20029;-91
2022/11/11 04:10:21;;;;;;;6.10;4.47;;;12.20;81.70;;;;;;5002663;28;20028;-85
2022/11/11 04:12:14;;;;;;;5.22;3.35;;;12.20;81.70;;;;;;5030760;28;20163;-85
2022/11/11 04:17:24;;;;;;;5.90;3.92;;;12.10;81.90;;;;;;5045495;28;20075;-85
2022/11/11 04:22:41;;;;;;;4.72;2.92;;;12.10;81.90;;;;;;5017446;28;20112;-86
2022/11/11 04:29:27;;;;;;;6.53;3.28;;;12.10;81.90;;;;;;5028500;28;20044;-85
2022/11/11 04:30:40;;;;;;;4.05;3.17;;;12.10;81.90;;;;;;5029864;28;20065;-85
2022/11/11 04:33:06;;;;;;;5.78;2.90;;;12.10;81.80;;;;;;5031104;28;20041;-85
2022/11/11 04:35:32;;;;;;;5.28;3.70;;;12.10;81.80;;;;;;5014244;28;20061;-85
2022/11/11 04:41:02;;;;;;;6.68;3.25;;;12.10;81.80;;;;;;5030825;28;20087;-86
2022/11/11 04:43:28;;;;;;;5.07;2.60;;;12.20;81.70;;;;;;5028771;28;20103;-86
2022/11/11 04:46:00;;;;;;;5.78;4.03;;;12.20;81.60;;;;;;5031812;28;20097;-85
2022/11/11 04:48:26;;;;;;;6.38;4.20;;;12.20;81.60;;;;;;5029076;28;20025;-85
2022/11/11 04:50:52;;;;;;;8.27;3.92;;;12.10;81.70;;;;;;5012990;28;20036;-85
2022/11/11 04:53:18;;;;;;;5.47;4.00;;;12.10;81.80;;;;;;5029515;28;20049;-85
2022/11/11 04:58:34;;;;;;;6.53;3.55;;;12.00;81.90;;;;;;5030231;28;20044;-85
2022/11/11 05:01:00;;;;;;;5.95;3.20;;;12.00;81.80;;;;;;5031343;28;20652;-85
2022/11/11 05:03:26;;;;;;;9.20;3.20;;;12.00;81.80;;;;;;5011761;28;20065;-85
2022/11/11 05:08:55;;;;;;;6.47;3.28;;;12.10;81.80;;;;;;5031459;28;20051;-85
2022/11/11 05:11:22;;;;;;;6.05;3.58;;;12.00;81.90;;;;;;5030119;28;20083;-85
2022/11/11 05:22:29;;;;;;;4.95;2.63;;;12.00;82.00;;;;;;4976294;28;20050;-85
2022/11/11 05:27:39;;;;;;;5.47;3.17;;;12.00;81.70;;;;;;5005312;28;20092;-85
2022/11/11 05:30:07;;;;;;;4.30;2.70;;;12.00;81.60;;;;;;4992927;28;20026;-93
2022/11/11 05:32:32;;;;;;;4.38;3.17;;;12.00;81.60;;;;;;5012359;28;20073;-92
2022/11/11 05:34:58;;;;;;;4.38;3.17;;;12.10;81.60;;;;;;4980028;28;20121;-91
2022/11/11 05:37:24;;;;;;;4.97;3.05;;;12.10;81.50;;;;;;4995602;28;20102;-92
2022/11/11 05:39:50;;;;;;;5.15;3.10;;;12.00;81.50;;;;;;5012837;28;20560;-85
2022/11/11 05:42:15;;;;;;;3.55;2.53;;;12.00;81.70;;;;;;5005020;28;20035;-86
2022/11/11 05:44:41;;;;;;;6.30;2.97;;;12.00;81.70;;;;;;5007265;28;20033;-85
2022/11/11 05:47:07;;;;;;;3.92;2.90;;;12.00;81.70;;;;;;4964376;28;20536;-85
2022/11/11 05:49:33;;;;;;;4.57;2.47;;;12.00;81.70;;;;;;4993734;28;20022;-85
2022/11/11 05:51:59;;;;;;;9.50;3.78;;;12.00;81.60;;;;;;5006310;28;20449;-85
2022/11/11 05:54:24;;;;;;;6.20;3.10;;;12.00;81.60;;;;;;4988030;28;20064;-85
2022/11/11 05:56:50;;;;;;;3.75;2.70;;;12.00;81.60;;;;;;4988388;28;20074;-85
2022/11/11 05:59:16;;;;;;;4.60;3.28;;;12.10;81.60;;;;;;4987830;28;20080;-85
2022/11/11 06:01:42;;;;;;;7.18;3.50;;;12.00;81.50;;;;;;5011667;28;20038;-92
2022/11/11 06:04:07;;;;;;;4.97;2.80;;;12.00;81.70;;;;;;4995109;28;20026;-91
2022/11/11 06:06:34;;;;;;;4.78;2.92;;;12.00;81.70;;;;;;4994811;28;20478;-92
2022/11/11 06:09:00;;;;;;;4.35;2.83;;;12.10;81.60;;;;;;5011793;28;20022;-93
2022/11/11 06:11:26;;;;;;;7.13;2.75;;;12.10;81.50;;;;;;5009625;28;20018;-86
2022/11/11 06:13:53;;;;;;;4.68;2.65;;;12.10;81.50;;;;;;4998686;28;20046;-86
2022/11/11 06:16:19;;;;;;;4.72;2.63;;;12.00;81.40;;;;;;4987079;28;20053;-85
2022/11/11 06:18:45;;;;;;;3.13;2.40;;;12.00;82.00;;;;;;5008943;28;20107;-86
2022/11/11 06:21:11;;;;;;;5.32;3.35;;;12.00;81.40;;;;;;4996246;28;20113;-86
2022/11/11 06:23:36;;;;;;;5.32;2.88;;;12.00;81.50;;;;;;4997781;28;20010;-86
2022/11/11 06:26:12;;;;;;;3.47;2.80;;;11.90;81.50;;;;;;4987535;28;20028;-86
2022/11/11 06:28:45;;;;;;;3.75;2.60;;;11.90;81.70;;;;;;5006268;28;20027;-91
2022/11/11 06:31:16;;;;;;;3.67;2.45;;;11.90;81.70;;;;;;5010546;28;20444;-92
2022/11/11 06:33:42;;;;;;;4.88;2.88;;;11.90;81.90;;;;;;5013571;28;20077;-86
2022/11/11 06:36:09;;;;;;;6.75;3.13;;;11.80;82.00;;;;;;4990539;28;20034;-86
2022/11/11 06:38:35;;;;;;;5.43;3.05;;;11.90;81.90;;;;;;5013405;28;20385;-86
2022/11/11 06:41:01;;;;;;;6.55;3.33;;;11.80;81.90;;;;;;4990132;28;20026;-86
2022/11/11 06:43:26;;;;;;;5.05;3.60;;;11.80;81.90;;;;;;4991155;28;20058;-92
2022/11/11 06:45:53;;;;;;;5.80;3.97;;;11.80;82.00;;;;;;5011202;28;20039;-92
2022/11/11 06:48:21;;;;;;;7.45;3.97;;;11.80;82.00;;;;;;5011261;28;20026;-91
2022/11/11 06:50:47;;;;;;;3.55;2.92;;;11.70;82.10;;;;;;5014651;28;20088;-85
2022/11/11 06:53:15;;;;;;;5.70;3.78;;;11.70;82.70;;;;;;5007864;28;20022;-86
2022/11/11 06:55:41;;;;;;;6.20;3.47;;;11.70;82.10;;;;;;5004255;28;20034;-86
2022/11/11 06:58:09;;;;;;;7.85;3.15;;;11.70;82.00;;;;;;5013659;28;20085;-85
2022/11/11 07:00:36;;;;;;;6.72;3.70;;;11.70;82.10;;;;;;5005927;28;20436;-85
2022/11/11 07:03:02;;;;;;;5.68;3.95;;;11.70;82.00;;;;;;4997174;28;20081;-86
2022/11/11 07:05:28;;;;;;;5.47;3.35;;;11.70;82.00;;;;;;5002298;28;20037;-86
2022/11/11 07:07:54;;;;;;;4.82;3.35;;;11.70;82.00;;;;;;4987420;28;20382;-86
2022/11/11 07:10:20;;;;;;;6.82;3.50;;;11.70;81.90;;;;;;5015766;28;20031;-86
2022/11/11 07:12:46;;;;;;;11.05;3.85;;;11.70;81.80;;;;;;5001472;28;20038;-86
2022/11/11 07:15:11;;;;;;;5.45;4.13;;;11.60;81.60;;;;;;4995736;28;20030;-86
2022/11/11 07:17:37;;;;;;;5.43;3.83;;;11.70;81.70;;;;;;5016797;28;20356;-86
2022/11/11 07:20:04;;;;;;;13.90;3.97;;;11.70;81.70;;;;;;5007345;28;20033;-86
2022/11/11 07:22:29;;;;;;;6.57;4.18;;;11.60;81.50;;;;;;5023537;28;20030;-86
2022/11/11 07:24:55;;;;;;;7.30;3.53;;;11.60;81.60;;;;;;4990864;28;20061;-86
2022/11/11 07:27:21;;;;;;;7.65;3.78;;;11.50;82.20;;;;;;4993599;28;20033;-86
2022/11/11 07:29:47;;;;;;;5.80;3.92;;;11.50;81.70;;;;;;4991094;28;20037;-85
2022/11/11 07:32:16;;;;;;;6.28;3.90;;;11.40;81.60;;;;;;5007934;28;20030;-86
2022/11/11 07:34:43;;;;;;;7.65;4.38;;;11.40;81.70;;;;;;5008893;28;20031;-85
2022/11/11 07:37:09;;;;;;;5.93;4.30;;;11.40;81.60;;;;;;4990767;28;20035;-86
2022/11/11 07:39:35;;;;;;;6.47;4.20;;;11.40;81.50;;;;;;4990696;28;20026;-86
2022/11/11 07:42:01;;;;;;;7.25;4.50;;;11.30;81.60;;;;;;5007577;28;20030;-85
2022/11/11 07:44:26;;;;;;;5.10;3.53;;;11.30;81.60;;;;;;5001228;28;20374;-86
2022/11/11 07:46:52;;;;;;;8.50;4.78;;;11.30;81.60;;;;;;5007541;28;20026;-86
2022/11/11 07:49:18;;;;;;;7.10;4.30;;;11.40;81.50;;;;;;5008561;28;20030;-86
2022/11/11 07:51:43;;;;;;;6.43;4.47;;;11.40;81.40;;;;;;4982772;28;20461;-84
2022/11/11 07:54:09;;;;;;;5.80;4.10;;;11.40;81.20;;;;;;4989538;28;20029;-85
2022/11/11 07:56:37;;;;;;;6.82;3.88;;;11.40;81.10;;;;;;4997012;28;20027;-86
2022/11/11 07:59:03;;;;;;;6.25;4.20;;;11.40;81.20;;;;;;4990454;28;20030;-85
2022/11/11 08:01:29;;;;;;;6.28;4.35;;;11.40;81.20;;;;;;4989704;28;20033;-86
2022/11/11 08:03:54;;;;;;;4.65;4.25;;;11.30;80.90;;;;;;4990767;28;20077;-86
2022/11/11 08:06:21;;;;;;;8.18;4.80;;;11.30;80.90;;;;;;4990468;28;20035;-86
2022/11/11 08:08:48;;;;;;;6.88;4.15;;;11.20;81.00;;;;;;5012212;28;20034;-86
2022/11/11 08:11:14;;;;;;;9.05;4.03;;;11.20;80.90;;;;;;4988259;28;20027;-85
2022/11/11 08:13:42;;;;;;;8.98;5.00;;;11.10;81.10;;;;;;4997032;28;20517;-87
2022/11/11 08:16:12;;;;;;;8.05;4.55;;;11.10;81.10;;;;;;5002982;28;20030;-86
2022/11/11 08:18:38;;;;;;;5.47;4.35;;;11.10;81.00;;;;;;5003372;28;20041;-88
2022/11/11 08:21:05;;;;;;;8.73;4.38;;;11.00;81.10;;;;;;5008212;28;20038;-86
2022/11/11 08:23:34;;;;;;;8.55;4.55;;;11.00;81.20;;;;;;5002331;28;20034;-88
2022/11/11 08:26:05;;;;;;;8.52;5.47;;;11.00;81.20;;;;;;4992751;28;20069;-87
2022/11/11 08:28:32;;;;;;;5.50;4.38;;;10.90;81.30;;;;;;5008589;28;20034;-89
2022/11/11 08:30:59;;;;;;;8.32;5.20;;;11.00;81.20;;;;;;5009922;28;20027;-89
2022/11/11 08:33:25;;;;;;;6.38;3.80;;;11.00;81.20;;;;;;5008420;28;20113;-88
2022/11/11 08:35:54;;;;;;;7.85;4.53;;;10.90;81.10;;;;;;5009172;28;20105;-88
2022/11/11 08:38:22;;;;;;;6.32;3.83;;;11.00;81.10;;;;;;5009494;28;20063;-92
2022/11/11 08:40:48;;;;;;;8.80;4.47;;;11.00;81.00;;;;;;5022649;28;20033;-89
2022/11/11 08:43:14;;;;;;;6.82;3.67;;;11.00;80.80;;;;;;5008965;28;20080;-86
2022/11/11 08:45:40;;;;;;;7.00;4.45;;;11.00;80.90;;;;;;4989194;28;20034;-87
2022/11/11 08:48:08;;;;;;;5.13;2.97;;;11.10;80.60;;;;;;4995847;28;20034;-85
2022/11/11 08:50:38;;;;;;;7.13;3.90;;;11.10;80.70;;;;;;5009065;28;20096;-88
2022/11/11 08:53:06;;;;;;;5.40;3.55;;;11.10;80.70;;;;;;4992367;28;20027;-86
2022/11/11 08:55:33;;;;;;;6.97;3.80;;;11.10;80.50;;;;;;4988429;28;20516;-86
2022/11/11 08:58:01;;;;;;;5.47;3.47;;;11.10;80.40;;;;;;4991294;28;20474;-87
2022/11/11 09:00:28;;;;;;;4.20;2.83;;;11.20;80.30;;;;;;4993157;28;20027;-85
2022/11/11 09:02:54;;;;;;;4.72;3.05;;;11.20;80.20;;;;;;4992571;28;20026;-86
2022/11/11 09:05:20;;;;;;;6.15;3.67;;;11.30;80.10;;;;;;5008761;28;20022;-86
2022/11/11 09:07:46;;;;;;;4.78;3.17;;;11.30;79.90;;;;;;4992874;28;20022;-85
2022/11/11 09:10:12;;;;;;;6.32;3.15;;;11.40;79.80;;;;;;4990972;28;20030;-85
2022/11/11 09:12:37;;;;;;;6.28;3.67;;;11.40;79.50;;;;;;5008982;28;20042;-86
2022/11/11 09:15:03;;;;;;;5.47;2.22;;;11.40;79.50;;;;;;5011599;28;20038;-86
2022/11/11 09:17:29;;;;;;;3.88;2.88;;;11.40;79.40;;;;;;5032576;28;20044;-85
2022/11/11 09:19:55;;;;;;;10.07;3.58;;;11.40;79.40;;;;;;5028548;28;20316;-86
2022/11/11 09:22:24;;;;;;;6.78;3.58;;;11.50;79.20;;;;;;5033624;28;20041;-85
2022/11/11 09:24:50;;;;;;;4.15;2.83;;;11.60;78.90;;;;;;4981948;28;20033;-85
2022/11/11 09:27:16;;;;;;;4.53;3.13;;;11.60;78.80;;;;;;4979847;28;20042;-85
2022/11/11 09:29:45;;;;;;;6.07;3.10;;;11.70;78.60;;;;;;5011917;28;20511;-86
2022/11/11 09:32:10;;;;;;;3.25;2.20;;;11.80;78.60;;;;;;5024222;28;20472;-85
2022/11/11 09:34:36;;;;;;;3.08;2.35;;;11.90;78.20;;;;;;5023361;28;20033;-85
2022/11/11 09:37:02;;;;;;;4.03;2.38;;;12.00;78.00;;;;;;5005552;28;20046;-85
2022/11/11 09:39:28;;;;;;;5.57;2.85;;;12.10;77.70;;;;;;5023953;28;20030;-85
2022/11/11 09:42:09;;;;;;;5.03;3.03;;;12.10;77.40;;;;;;5010081;28;20087;-85
2022/11/11 09:45:11;;;;;;;5.00;2.78;;;12.20;77.30;;;;;;5008569;28;20036;-85
2022/11/11 09:47:58;;;;;;;3.28;1.92;;;12.30;77.30;;;;;;5027665;28;20510;-85
2022/11/11 09:50:27;;;;;;;5.70;3.03;;;12.30;77.30;;;;;;5028048;28;20025;-85
2022/11/11 09:53:17;;;;;;;3.75;2.20;;;12.40;77.10;;;;;;5024630;28;20504;-85
2022/11/11 09:55:48;;;;;;;4.68;1.85;;;12.50;76.70;;;;;;5027790;28;20037;-86
2022/11/11 09:58:28;;;;;;;2.60;2.40;;;12.60;76.70;;;;;;5014537;28;20158;-85
2022/11/11 10:01:28;;;;;;;2.97;2.45;;;12.70;76.00;;;;;;5037386;28;20021;-86
2022/11/11 10:04:17;;;;;;;7.32;2.53;;;12.70;76.00;;;;;;5022919;28;20489;-85
2022/11/11 10:06:44;;;;;;;2.78;2.05;;;12.80;75.80;;;;;;5025044;28;20083;-85
2022/11/11 10:09:59;;;;;;;4.50;2.70;;;12.90;75.80;;;;;;5035558;28;20475;-85
2022/11/11 10:12:38;;;;;;;2.08;1.80;;;13.00;75.40;;;;;;4970170;28;20506;-85
2022/11/11 10:15:10;;;;;;;6.10;1.85;;;13.10;75.20;;;;;;4982293;28;20493;-85
2022/11/11 10:17:52;;;;;;;;;;;13.30;74.90;;;;;;5011477;28;20040;-85
2022/11/11 10:20:29;;;;;;;3.92;2.22;;;13.50;74.50;;;;;;4998832;28;19916;-85
2022/11/11 10:23:13;;;;;;;4.63;2.50;;;13.60;73.90;;;;;;5011452;28;20442;-85
2022/11/11 10:25:51;;;;;;;6.68;2.40;;;13.70;73.40;;;;;;5009309;28;20532;-85
2022/11/11 10:28:20;;;;;;;7.97;2.13;;;13.90;73.40;;;;;;5002479;28;20027;-85
2022/11/11 10:30:48;;;;;;;3.30;2.03;;;14.10;72.60;;;;;;5006550;28;20128;-85
2022/11/11 10:33:46;;;;;;;2.58;2.20;;;14.20;72.30;;;;;;5011674;28;20034;-85
2022/11/11 10:36:18;;;;;;;2.30;1.90;;;14.40;71.50;;;;;;5007748;28;20057;-85
2022/11/11 10:38:48;;;;;;;;;;;14.40;71.60;;;;;;5002966;28;20417;-85
2022/11/11 10:41:37;;;;;;;2.80;1.52;;;14.50;71.30;;;;;;5007619;28;19910;-85
2022/11/11 10:44:25;;;;;;;4.13;1.77;;;14.70;71.30;;;;;;5011808;28;20027;-85
2022/11/11 10:47:00;;;;;;;3.17;1.98;;;14.80;70.80;;;;;;5008472;28;20022;-86
2022/11/11 10:49:30;;;;;;;3.65;2.08;;;14.90;70.50;;;;;;4996452;28;20078;-86
2022/11/11 10:52:08;;;;;;;4.82;2.25;;;15.20;70.00;;;;;;5010030;28;20457;-86
2022/11/11 10:54:54;;;;;;;7.65;2.13;;;15.70;69.40;;;;;;5008410;28;20025;-86
2022/11/11 10:57:35;;;;;;;1.80;1.60;;;16.60;67.50;;;;;;5008765;28;20504;-85
2022/11/11 11:00:10;;;;;;;5.53;2.70;;;17.50;64.60;;;;;;5006607;28;20485;-87
2022/11/11 11:02:47;;;;;;;2.08;1.63;;;18.30;62.00;;;;;;4994296;28;20507;-86
2022/11/11 11:05:25;;;;;;;2.40;1.23;;;19.10;60.20;;;;;;5007754;28;20327;-86
2022/11/11 11:07:55;;;;;;;1.55;1.25;;;20.00;58.90;;;;;;5009362;28;20110;-92
2022/11/11 11:10:44;;;;;;;1.55;1.45;;;20.70;57.10;;;;;;5019122;28;20022;-91
2022/11/11 11:13:35;;;;;;;4.55;1.58;;;21.10;55.10;;;;;;5005318;28;20105;-91
2022/11/11 11:16:12;;;;;;;1.75;1.65;;;21.30;54.60;;;;;;5037109;28;20029;-91
2022/11/11 11:18:38;;;;;;;1.10;1.00;;;21.30;54.60;;;;;;5027419;28;20347;-92
2022/11/11 11:21:05;;;;;;;2.20;1.20;;;21.00;54.50;;;;;;5032912;28;20030;-87
2022/11/11 11:23:41;;;;;;;1.77;1.20;;;20.90;54.80;;;;;;5029291;28;20569;-87
2022/11/11 11:26:09;;;;;;;1.63;1.17;;;21.20;54.40;;;;;;5029699;28;20053;-91
2022/11/11 11:28:50;;;;;;;1.65;0.98;;;21.80;54.00;;;;;;5002054;28;20030;-90
2022/11/11 11:31:16;;;;;;;1.77;1.50;;;22.40;53.50;;;;;;5003994;28;20034;-89
2022/11/11 11:34:08;;;;;;;1.10;0.80;;;22.80;52.10;;;;;;5035972;28;20105;-89
2022/11/11 11:36:34;;;;;;;1.85;1.42;;;23.00;51.70;;;;;;4999991;28;20038;-90
2022/11/11 11:39:00;;;;;;;0.73;0.73;;;23.10;51.40;;;;;;5024373;28;20107;-90
2022/11/11 11:41:43;;;;;;;2.47;1.30;;;23.10;51.50;;;;;;4981021;28;20096;-85
2022/11/11 11:44:29;;;;;;;1.95;1.15;;;22.50;51.40;;;;;;5009765;28;20088;-85
2022/11/11 11:47:21;;;;;;;1.42;1.08;;;22.20;52.40;;;;;;5022453;28;20034;-84
2022/11/11 11:50:14;;;;;;;2.78;1.00;;;22.20;51.40;;;;;;5011666;28;20084;-87
2022/11/11 11:52:50;;;;;;;3.58;1.02;;;22.20;51.50;;;;;;5026981;28;20026;-85
2022/11/11 11:55:20;;;;;;;1.35;0.85;;;22.20;50.90;;;;;;5005751;28;20026;-85
2022/11/11 11:58:02;;;;;;;1.17;1.02;;;22.10;50.90;;;;;;5006935;28;20112;-86
2022/11/11 12:00:30;;;;;;;1.50;1.20;;;22.10;50.20;;;;;;5011057;28;20091;-85
2022/11/11 12:03:27;;;;;;;1.75;0.85;;;22.40;49.80;;;;;;5029197;28;20077;-91
2022/11/11 12:06:03;;;;;;;1.35;1.17;;;22.70;48.90;;;;;;5028489;28;20041;-90
2022/11/11 12:08:37;;;;;;;0.90;0.80;;;23.00;48.80;;;;;;5032095;28;20113;-92
2022/11/11 12:11:10;;;;;;;2.47;1.30;;;23.40;47.90;;;;;;5036835;28;20040;-91
2022/11/11 12:14:03;;;;;;;1.27;1.13;;;23.90;47.40;;;;;;5024612;28;20076;-85
2022/11/11 12:16:41;;;;;;;2.45;1.25;;;23.80;46.20;;;;;;5009845;28;20116;-85
2022/11/11 12:19:29;;;;;;;1.35;1.08;;;23.30;47.80;;;;;;5021077;28;20054;-85
2022/11/11 12:22:16;;;;;;;1.15;0.98;;;22.50;48.50;;;;;;5008254;28;20420;-85
2022/11/11 12:25:06;;;;;;;1.08;0.98;;;21.90;49.40;;;;;;5023181;28;20488;-85
2022/11/11 12:27:52;;;;;;;2.22;1.27;;;21.20;51.10;;;;;;5021581;28;20469;-85
2022/11/11 12:30:26;;;;;;;3.33;1.45;;;20.90;52.00;;;;;;5024091;28;20037;-85
2022/11/11 12:33:29;;;;;;;4.65;1.27;;;20.40;51.90;;;;;;5009507;28;20490;-85
2022/11/11 12:36:15;;;;;;;3.28;1.00;;;19.80;53.40;;;;;;5021043;28;20030;-85
2022/11/11 12:38:57;;;;;;;2.47;1.52;;;19.40;53.90;;;;;;5019448;28;20633;-91
2022/11/11 12:41:34;;;;;;;1.42;1.13;;;19.30;54.20;;;;;;5016415;28;20032;-84
2022/11/11 12:44:03;;;;;;;0.82;0.82;;;19.00;54.80;;;;;;5031339;28;20029;-91
2022/11/11 12:46:50;;;;;;;2.78;1.13;;;18.80;55.30;;;;;;5031144;28;20044;-91
2022/11/11 12:49:54;;;;;;;1.35;0.80;;;18.50;55.50;;;;;;5024536;28;20037;-85
2022/11/11 12:52:42;;;;;;;2.10;1.13;;;18.00;56.50;;;;;;5028319;28;20087;-85
2022/11/11 12:55:28;;;;;;;3.95;0.95;;;17.50;57.70;;;;;;5017333;28;20621;-85
2022/11/11 12:58:05;;;;;;;1.27;0.77;;;17.30;58.30;;;;;;5023531;28;20030;-85
2022/11/11 13:00:34;;;;;;;1.10;1.00;;;17.30;58.70;;;;;;5009656;28;20365;-85
2022/11/11 13:03:18;;;;;;;1.80;0.93;;;17.10;58.90;;;;;;5024304;28;20079;-85
2022/11/11 13:06:00;;;;;;;1.40;0.90;;;16.90;59.40;;;;;;5021684;28;20030;-85
2022/11/11 13:08:53;;;;;;;1.48;1.13;;;16.90;59.90;;;;;;5008023;28;20032;-85
2022/11/11 13:11:21;;;;;;;;;;;16.90;59.90;;;;;;4995502;28;20017;-85
2022/11/11 13:14:11;;;;;;;1.15;0.95;;;16.90;60.00;;;;;;5008082;28;20044;-84
2022/11/11 13:16:37;;;;;;;1.77;0.98;;;16.90;60.00;;;;;;4990528;28;20393;-90
2022/11/11 13:19:30;;;;;;;2.55;0.70;;;16.90;60.00;;;;;;4991181;28;20026;-90
2022/11/11 13:22:07;;;;;;;4.43;0.70;;;17.00;60.00;;;;;;5003540;28;20042;-90
2022/11/11 13:24:35;;;;;;;2.40;0.75;;;16.90;60.10;;;;;;4995833;28;20042;-90
2022/11/11 13:27:11;;;;;;;1.20;0.63;;;16.90;60.40;;;;;;5008426;28;20499;-91
2022/11/11 13:30:06;;;;;;;2.13;0.80;;;17.00;60.60;;;;;;4991088;28;20027;-86
2022/11/11 13:32:41;;;;;;;2.05;1.30;;;17.30;60.00;;;;;;5004977;28;20034;-89
2022/11/11 13:35:29;;;;;;;1.25;1.15;;;17.40;59.60;;;;;;5007975;28;20026;-89
2022/11/11 13:37:55;;;;;;;1.98;1.15;;;17.30;59.60;;;;;;4991899;28;20030;-90
2022/11/11 13:40:50;;;;;;;0.77;0.70;;;17.10;60.10;;;;;;5007182;28;20034;-89
2022/11/11 13:43:29;;;;;;;2.28;1.10;;;16.90;60.50;;;;;;5002916;28;20042;-90
2022/11/11 13:45:58;;;;;;;0.68;0.55;;;16.70;60.90;;;;;;4990436;28;20081;-90
2022/11/11 13:48:32;;;;;;;0.70;0.70;;;16.70;61.40;;;;;;5007595;28;20027;-90
2022/11/11 13:51:30;;;;;;;1.60;1.00;;;16.60;61.60;;;;;;4991716;28;20022;-89
2022/11/11 13:53:58;;;;;;;2.92;1.35;;;16.70;61.70;;;;;;4991659;28;20089;-90
2022/11/11 13:56:43;;;;;;;1.00;0.77;;;16.60;62.00;;;;;;5006291;28;20080;-90
2022/11/11 13:59:25;;;;;;;1.33;0.95;;;16.80;62.00;;;;;;5009590;28;20030;-90
2022/11/11 14:02:31;;;;;;;1.13;0.60;;;16.90;61.90;;;;;;4991307;28;20030;-90
2022/11/11 14:05:07;;;;;;;1.40;1.20;;;16.90;61.90;;;;;;5003071;28;20038;-90
2022/11/11 14:07:48;;;;;;;1.85;1.10;;;16.90;61.90;;;;;;5008314;28;20089;-84
2022/11/11 14:10:17;;;;;;;0.45;0.45;;;16.90;62.10;;;;;;4987080;28;20036;-85
2022/11/11 14:12:47;;;;;;;1.42;0.70;;;16.90;62.30;;;;;;5005930;28;20041;-85
2022/11/11 14:15:44;;;;;;;0.70;0.70;;;16.90;62.30;;;;;;5028555;28;20060;-85